Filia Ariea — PIET — position and weather

sailwx.info

Track history (hours):
 
Tides and Currents Weather Stations Pressure Air Temp Water Temp Dewpoint Dewpoint Depression Visibility Wind Speed Wind Dir Waves Ship Positions

Filia Ariea

Last reported at 2014-Dec-20 23:25 UTC. Time now 2014-Dec-21 01:11 UTC.
Position N 50°40' W 001°52'.

Length 90 m; draft 4.6 m.

Type: Cargo ship. MMSI: 244662000.

Date/timePositionNaut miles runAvg speedWind from/ knotsBaromVisibWave heightAir tempDewpointWater temp
2014-Dec-20 23:25N 50°40' W 001°52'0 0.1
2014-Dec-20 22:07N 50°40' W 001°52'0 0.0
2014-Dec-20 21:31N 50°40' W 001°52'7 6.8
2014-Dec-20 20:32N 50°34' W 001°56'1312.1
2014-Dec-20 19:29N 50°27' W 002°13'2712.3
2014-Dec-20 17:16N 50°17' W 002°53'911.9
2014-Dec-20 16:33N 50°15' W 003°06'  
2014-Dec-18 10:18N 53°24' W 003°38'7 8.4
2014-Dec-18 09:31N 53°27' W 003°27'7 7.7
2014-Dec-18 08:33N 53°31' W 003°18'7 7.4
2014-Dec-18 07:33N 53°30' W 003°05'8 8.4
2014-Dec-18 06:33N 53°22' W 002°59'4 4.0
2014-Dec-18 05:33N 53°19' W 002°56'2 1.9
2014-Dec-18 04:32N 53°18' W 002°54'0 0.0
2014-Dec-18 03:32N 53°18' W 002°54'0 0.0
2014-Dec-18 02:32N 53°18' W 002°54'0 0.0
2014-Dec-18 01:25N 53°18' W 002°54'0 0.0
2014-Dec-18 00:31N 53°18' W 002°54'0 0.0
2014-Dec-17 23:30N 53°18' W 002°54'0 0.0
2014-Dec-17 22:30N 53°18' W 002°54'0 0.0
2014-Dec-17 21:29N 53°18' W 002°54'0 0.0
2014-Dec-17 20:29N 53°18' W 002°54'0 0.0
2014-Dec-17 19:29N 53°18' W 002°54'0 0.0
2014-Dec-17 18:28N 53°18' W 002°54'0 0.0
2014-Dec-17 17:28N 53°18' W 002°54'0 0.0
2014-Dec-17 16:33N 53°18' W 002°54'0 0.0
2014-Dec-17 15:33N 53°18' W 002°54'0 0.0
2014-Dec-17 14:32N 53°18' W 002°54'0 0.0
2014-Dec-17 13:32N 53°18' W 002°54'0 0.0
2014-Dec-17 12:32N 53°18' W 002°54'0 0.0
2014-Dec-17 11:25N 53°18' W 002°54'0 0.0
2014-Dec-17 10:25N 53°18' W 002°54'0 0.0
2014-Dec-17 09:30N 53°18' W 002°54'0 0.0
2014-Dec-17 08:30N 53°18' W 002°54'0 0.0
2014-Dec-17 07:23N 53°18' W 002°54'0 0.0
2014-Dec-17 06:29N 53°18' W 002°54'0 0.0
2014-Dec-17 05:28N 53°18' W 002°54'0 0.0
2014-Dec-17 04:28N 53°18' W 002°54'0 0.0
2014-Dec-17 03:22N 53°18' W 002°54'0 0.0
2014-Dec-17 02:33N 53°18' W 002°54'0 0.0
2014-Dec-17 01:27N 53°18' W 002°54'0 0.0
2014-Dec-17 00:32N 53°18' W 002°54'0 0.0
2014-Dec-16 23:32N 53°18' W 002°54'0 0.0
2014-Dec-16 22:31N 53°18' W 002°54'0 0.0
2014-Dec-16 21:33N 53°18' W 002°54'3 2.6
2014-Dec-16 20:33N 53°19' W 002°57'1 1.4
2014-Dec-16 19:33N 53°21' W 002°58'3 3.2
2014-Dec-16 18:33N 53°24' W 003°00'5 5.3
2014-Dec-16 17:33N 53°28' W 003°04'7 7.2
2014-Dec-16 16:33N 53°31' W 003°15'6 6.4
2014-Dec-16 15:33N 53°32' W 003°26'198 5.9
2014-Dec-15 06:03N 50°13' W 003°22'510.7
2014-Dec-15 05:33N 50°15' W 003°14'10 9.8
2014-Dec-15 04:33N 50°18' W 002°59'9 8.8
2014-Dec-15 03:32N 50°20' W 002°45'36 6.7
2014-Dec-14 22:10N 50°35' W 001°55'5 7.7
2014-Dec-14 21:33N 50°40' W 001°52'0 0.4
2014-Dec-14 20:32N 50°40' W 001°52'0 0.0
2014-Dec-14 19:32N 50°40' W 001°52'0 0.0
2014-Dec-14 18:31N 50°40' W 001°52'0 0.0
2014-Dec-14 17:31N 50°40' W 001°52'0 0.0
2014-Dec-14 16:30N 50°40' W 001°52'0 0.0
2014-Dec-14 15:30N 50°40' W 001°52'0 0.0
2014-Dec-14 14:30N 50°40' W 001°52'0 0.0
2014-Dec-14 12:29N 50°40' W 001°52'0 0.0
2014-Dec-14 11:28N 50°40' W 001°52'0 0.0
2014-Dec-14 10:28N 50°40' W 001°52'0 0.0
2014-Dec-14 09:33N 50°40' W 001°52'0 0.0
2014-Dec-14 03:16N 50°40' W 001°52'0 0.0
2014-Dec-14 01:33N 50°40' W 001°52'0 0.0
2014-Dec-13 23:32N 50°40' W 001°52'7 7.4
2014-Dec-13 22:34N 50°37' W 001°41'1110.8
2014-Dec-13 21:33N 50°34' W 001°25'1211.6
2014-Dec-13 20:32N 50°32' W 001°06'1212.4
2014-Dec-13 19:33N 50°32' W 000°47'1312.9
2014-Dec-13 18:33N 50°32' W 000°27'1712.6
2014-Dec-13 17:11N 50°33' E 000°00'1112.2
2014-Dec-13 16:17N 50°36' E 000°17'911.6
2014-Dec-13 15:33N 50°38' E 000°30'1111.1
2014-Dec-13 14:33N 50°44' E 000°45'1211.1
2014-Dec-13 13:28N 50°51' E 001°01'1111.6
2014-Dec-13 12:32N 50°58' E 001°13'1313.2
2014-Dec-13 11:33N 51°06' E 001°29'1413.6
2014-Dec-13 10:33N 51°15' E 001°46'1312.7
2014-Dec-13 09:33N 51°25' E 001°57'1211.5
2014-Dec-13 08:33N 51°34' E 002°10'1510.6
2014-Dec-13 07:10N 51°45' E 002°26'52 9.1
2014-Dec-13 01:28N 52°14' E 003°35'8 9.3
2014-Dec-13 00:33N 52°18' E 003°47'9 8.8
2014-Dec-12 23:33N 52°20' E 004°01'9 8.7
2014-Dec-12 22:33N 52°23' E 004°14'8 8.4
2014-Dec-12 21:33N 52°27' E 004°26'6 5.9
2014-Dec-12 20:33N 52°28' E 004°36'3 2.6
2014-Dec-12 19:33N 52°27' E 004°40'8 7.5
2014-Dec-12 18:32N 52°24' E 004°52'0 0.2
2014-Dec-12 17:31N 52°24' E 004°52'0 0.0
2014-Dec-12 16:31N 52°24' E 004°52'0 0.0
2014-Dec-12 15:33N 52°24' E 004°52'0 0.0
2014-Dec-12 14:33N 52°24' E 004°52'0 0.0
2014-Dec-12 13:32N 52°24' E 004°52'0 0.0
2014-Dec-12 12:32N 52°24' E 004°52'0 0.0
2014-Dec-12 11:32N 52°24' E 004°52'0 0.2
2014-Dec-12 10:31N 52°24' E 004°52'0 0.0
2014-Dec-12 09:28N 52°24' E 004°52'0 0.0
2014-Dec-12 08:33N 52°24' E 004°52'0 0.0
2014-Dec-12 07:33N 52°24' E 004°52'1 0.6
2014-Dec-12 06:31N 52°24' E 004°52'0 0.0
2014-Dec-12 05:33N 52°24' E 004°52'0 0.0
2014-Dec-12 04:33N 52°24' E 004°52'0 0.0
2014-Dec-12 03:32N 52°24' E 004°52'0 0.0
2014-Dec-12 02:32N 52°24' E 004°52'0 0.0
2014-Dec-12 01:31N 52°24' E 004°52'0 0.0
2014-Dec-12 00:33N 52°24' E 004°52'0 0.0
2014-Dec-11 23:33N 52°24' E 004°52'0 0.0
2014-Dec-11 22:33N 52°24' E 004°52'0 0.0
2014-Dec-11 21:33N 52°24' E 004°52'0 0.0
2014-Dec-11 20:32N 52°24' E 004°52'0 0.0
2014-Dec-11 19:32N 52°24' E 004°52'0 0.0
2014-Dec-11 18:33N 52°24' E 004°52'0 0.0
2014-Dec-11 17:31N 52°24' E 004°52'0 0.0
2014-Dec-11 16:33N 52°24' E 004°52'0 0.0
2014-Dec-11 15:33N 52°24' E 004°52'0 0.0
2014-Dec-11 14:32N 52°24' E 004°52'0 0.0
2014-Dec-11 13:32N 52°24' E 004°52'0 0.0
2014-Dec-11 12:32N 52°24' E 004°52'0 0.0
2014-Dec-11 11:33N 52°24' E 004°52'3 2.7
2014-Dec-11 10:33N 52°25' E 004°48'8 7.6
2014-Dec-11 09:33N 52°28' E 004°36'3 3.1
2014-Dec-11 08:33N 52°28' E 004°31'7 7.0
2014-Dec-11 07:33N 52°23' E 004°23'1110.6
2014-Dec-11 06:33N 52°15' E 004°11'1212.2
2014-Dec-11 05:33N 52°06' E 003°58'1412.0
2014-Dec-11 04:26N 51°59' E 003°39'25 8.8
2014-Dec-11 01:33N 51°37' E 003°21'9 8.5
2014-Dec-11 00:33N 51°30' E 003°29'1010.0
2014-Dec-10 23:33N 51°24' E 003°42'  
Track history (hours):
 
Tides and Currents Weather Stations Pressure Air Temp Water Temp Dewpoint Dewpoint Depression Visibility Wind Speed Wind Dir Waves Ship Positions

Filia Ariea

Last reported at 2014-Dec-20 23:25 UTC. Time now 2014-Dec-21 01:11 UTC.
Position N 50°40' W 001°52'.

Length 90 m; draft 4.6 m.

Type: Cargo ship. MMSI: 244662000.

Date/timePositionNaut miles runAvg speedWind from/ knotsBaromVisibWave heightAir tempDewpointWater temp
2014-Dec-20 23:25N 50°40' W 001°52'0 0.1
2014-Dec-20 22:07N 50°40' W 001°52'0 0.0
2014-Dec-20 21:31N 50°40' W 001°52'7 6.8
2014-Dec-20 20:32N 50°34' W 001°56'1312.1
2014-Dec-20 19:29N 50°27' W 002°13'2712.3
2014-Dec-20 17:16N 50°17' W 002°53'911.9
2014-Dec-20 16:33N 50°15' W 003°06'  
2014-Dec-18 10:18N 53°24' W 003°38'7 8.4
2014-Dec-18 09:31N 53°27' W 003°27'7 7.7
2014-Dec-18 08:33N 53°31' W 003°18'7 7.4
2014-Dec-18 07:33N 53°30' W 003°05'8 8.4
2014-Dec-18 06:33N 53°22' W 002°59'4 4.0
2014-Dec-18 05:33N 53°19' W 002°56'2 1.9
2014-Dec-18 04:32N 53°18' W 002°54'0 0.0
2014-Dec-18 03:32N 53°18' W 002°54'0 0.0
2014-Dec-18 02:32N 53°18' W 002°54'0 0.0
2014-Dec-18 01:25N 53°18' W 002°54'0 0.0
2014-Dec-18 00:31N 53°18' W 002°54'0 0.0
2014-Dec-17 23:30N 53°18' W 002°54'0 0.0
2014-Dec-17 22:30N 53°18' W 002°54'0 0.0
2014-Dec-17 21:29N 53°18' W 002°54'0 0.0
2014-Dec-17 20:29N 53°18' W 002°54'0 0.0
2014-Dec-17 19:29N 53°18' W 002°54'0 0.0
2014-Dec-17 18:28N 53°18' W 002°54'0 0.0
2014-Dec-17 17:28N 53°18' W 002°54'0 0.0
2014-Dec-17 16:33N 53°18' W 002°54'0 0.0
2014-Dec-17 15:33N 53°18' W 002°54'0 0.0
2014-Dec-17 14:32N 53°18' W 002°54'0 0.0
2014-Dec-17 13:32N 53°18' W 002°54'0 0.0
2014-Dec-17 12:32N 53°18' W 002°54'0 0.0
2014-Dec-17 11:25N 53°18' W 002°54'0 0.0
2014-Dec-17 10:25N 53°18' W 002°54'0 0.0
2014-Dec-17 09:30N 53°18' W 002°54'0 0.0
2014-Dec-17 08:30N 53°18' W 002°54'0 0.0
2014-Dec-17 07:23N 53°18' W 002°54'0 0.0
2014-Dec-17 06:29N 53°18' W 002°54'0 0.0
2014-Dec-17 05:28N 53°18' W 002°54'0 0.0
2014-Dec-17 04:28N 53°18' W 002°54'0 0.0
2014-Dec-17 03:22N 53°18' W 002°54'0 0.0
2014-Dec-17 02:33N 53°18' W 002°54'0 0.0
2014-Dec-17 01:27N 53°18' W 002°54'0 0.0
2014-Dec-17 00:32N 53°18' W 002°54'0 0.0
2014-Dec-16 23:32N 53°18' W 002°54'0 0.0
2014-Dec-16 22:31N 53°18' W 002°54'0 0.0
2014-Dec-16 21:33N 53°18' W 002°54'3 2.6
2014-Dec-16 20:33N 53°19' W 002°57'1 1.4
2014-Dec-16 19:33N 53°21' W 002°58'3 3.2
2014-Dec-16 18:33N 53°24' W 003°00'5 5.3
2014-Dec-16 17:33N 53°28' W 003°04'7 7.2
2014-Dec-16 16:33N 53°31' W 003°15'6 6.4
2014-Dec-16 15:33N 53°32' W 003°26'198 5.9
2014-Dec-15 06:03N 50°13' W 003°22'510.7
2014-Dec-15 05:33N 50°15' W 003°14'10 9.8
2014-Dec-15 04:33N 50°18' W 002°59'9 8.8
2014-Dec-15 03:32N 50°20' W 002°45'36 6.7
2014-Dec-14 22:10N 50°35' W 001°55'5 7.7
2014-Dec-14 21:33N 50°40' W 001°52'0 0.4
2014-Dec-14 20:32N 50°40' W 001°52'0 0.0
2014-Dec-14 19:32N 50°40' W 001°52'0 0.0
2014-Dec-14 18:31N 50°40' W 001°52'0 0.0
2014-Dec-14 17:31N 50°40' W 001°52'0 0.0
2014-Dec-14 16:30N 50°40' W 001°52'0 0.0
2014-Dec-14 15:30N 50°40' W 001°52'0 0.0
2014-Dec-14 14:30N 50°40' W 001°52'0 0.0
2014-Dec-14 12:29N 50°40' W 001°52'0 0.0
2014-Dec-14 11:28N 50°40' W 001°52'0 0.0
2014-Dec-14 10:28N 50°40' W 001°52'0 0.0
2014-Dec-14 09:33N 50°40' W 001°52'0 0.0
2014-Dec-14 03:16N 50°40' W 001°52'0 0.0
2014-Dec-14 01:33N 50°40' W 001°52'0 0.0
2014-Dec-13 23:32N 50°40' W 001°52'7 7.4
2014-Dec-13 22:34N 50°37' W 001°41'1110.8
2014-Dec-13 21:33N 50°34' W 001°25'1211.6
2014-Dec-13 20:32N 50°32' W 001°06'1212.4
2014-Dec-13 19:33N 50°32' W 000°47'1312.9
2014-Dec-13 18:33N 50°32' W 000°27'1712.6
2014-Dec-13 17:11N 50°33' E 000°00'1112.2
2014-Dec-13 16:17N 50°36' E 000°17'911.6
2014-Dec-13 15:33N 50°38' E 000°30'1111.1
2014-Dec-13 14:33N 50°44' E 000°45'1211.1
2014-Dec-13 13:28N 50°51' E 001°01'1111.6
2014-Dec-13 12:32N 50°58' E 001°13'1313.2
2014-Dec-13 11:33N 51°06' E 001°29'1413.6
2014-Dec-13 10:33N 51°15' E 001°46'1312.7
2014-Dec-13 09:33N 51°25' E 001°57'1211.5
2014-Dec-13 08:33N 51°34' E 002°10'1510.6
2014-Dec-13 07:10N 51°45' E 002°26'52 9.1
2014-Dec-13 01:28N 52°14' E 003°35'8 9.3
2014-Dec-13 00:33N 52°18' E 003°47'9 8.8
2014-Dec-12 23:33N 52°20' E 004°01'9 8.7
2014-Dec-12 22:33N 52°23' E 004°14'8 8.4
2014-Dec-12 21:33N 52°27' E 004°26'6 5.9
2014-Dec-12 20:33N 52°28' E 004°36'3 2.6
2014-Dec-12 19:33N 52°27' E 004°40'8 7.5
2014-Dec-12 18:32N 52°24' E 004°52'0 0.2
2014-Dec-12 17:31N 52°24' E 004°52'0 0.0
2014-Dec-12 16:31N 52°24' E 004°52'0 0.0
2014-Dec-12 15:33N 52°24' E 004°52'0 0.0
2014-Dec-12 14:33N 52°24' E 004°52'0 0.0
2014-Dec-12 13:32N 52°24' E 004°52'0 0.0
2014-Dec-12 12:32N 52°24' E 004°52'0 0.0
2014-Dec-12 11:32N 52°24' E 004°52'0 0.2
2014-Dec-12 10:31N 52°24' E 004°52'0 0.0
2014-Dec-12 09:28N 52°24' E 004°52'0 0.0
2014-Dec-12 08:33N 52°24' E 004°52'0 0.0
2014-Dec-12 07:33N 52°24' E 004°52'1 0.6
2014-Dec-12 06:31N 52°24' E 004°52'0 0.0
2014-Dec-12 05:33N 52°24' E 004°52'0 0.0
2014-Dec-12 04:33N 52°24' E 004°52'0 0.0
2014-Dec-12 03:32N 52°24' E 004°52'0 0.0
2014-Dec-12 02:32N 52°24' E 004°52'0 0.0
2014-Dec-12 01:31N 52°24' E 004°52'0 0.0
2014-Dec-12 00:33N 52°24' E 004°52'0 0.0
2014-Dec-11 23:33N 52°24' E 004°52'0 0.0
2014-Dec-11 22:33N 52°24' E 004°52'0 0.0
2014-Dec-11 21:33N 52°24' E 004°52'0 0.0
2014-Dec-11 20:32N 52°24' E 004°52'0 0.0
2014-Dec-11 19:32N 52°24' E 004°52'0 0.0
2014-Dec-11 18:33N 52°24' E 004°52'0 0.0
2014-Dec-11 17:31N 52°24' E 004°52'0 0.0
2014-Dec-11 16:33N 52°24' E 004°52'0 0.0
2014-Dec-11 15:33N 52°24' E 004°52'0 0.0
2014-Dec-11 14:32N 52°24' E 004°52'0 0.0
2014-Dec-11 13:32N 52°24' E 004°52'0 0.0
2014-Dec-11 12:32N 52°24' E 004°52'0 0.0
2014-Dec-11 11:33N 52°24' E 004°52'3 2.7
2014-Dec-11 10:33N 52°25' E 004°48'8 7.6
2014-Dec-11 09:33N 52°28' E 004°36'3 3.1
2014-Dec-11 08:33N 52°28' E 004°31'7 7.0
2014-Dec-11 07:33N 52°23' E 004°23'1110.6
2014-Dec-11 06:33N 52°15' E 004°11'1212.2
2014-Dec-11 05:33N 52°06' E 003°58'1412.0
2014-Dec-11 04:26N 51°59' E 003°39'25 8.8
2014-Dec-11 01:33N 51°37' E 003°21'9 8.5
2014-Dec-11 00:33N 51°30' E 003°29'1010.0
2014-Dec-10 23:33N 51°24' E 003°42'  

Dump ship's entire track history